sensor_id;sensor_type;location;lat;lon;timestamp;temperature;humidity
210;DHT22;90;48.810;9.120;2023-08-20T00:19:53;24.50;85.10
210;DHT22;90;48.810;9.120;2023-08-20T01:09:18;24.30;85.60
210;DHT22;90;48.810;9.120;2023-08-20T01:11:56;24.30;85.70
210;DHT22;90;48.810;9.120;2023-08-20T01:27:10;24.10;86.70
210;DHT22;90;48.810;9.120;2023-08-20T01:29:46;24.10;86.60
210;DHT22;90;48.810;9.120;2023-08-20T02:50:54;23.50;87.60
210;DHT22;90;48.810;9.120;2023-08-20T05:33:26;23.30;88.50
210;DHT22;90;48.810;9.120;2023-08-20T06:20:06;25.30;82.50
210;DHT22;90;48.810;9.120;2023-08-20T06:22:35;25.30;82.50
210;DHT22;90;48.810;9.120;2023-08-20T06:25:02;25.30;82.90
210;DHT22;90;48.810;9.120;2023-08-20T06:27:29;25.30;82.90
210;DHT22;90;48.810;9.120;2023-08-20T06:29:56;25.30;82.50
210;DHT22;90;48.810;9.120;2023-08-20T06:32:23;25.40;82.60
210;DHT22;90;48.810;9.120;2023-08-20T06:34:50;25.30;82.60
210;DHT22;90;48.810;9.120;2023-08-20T06:37:16;25.40;82.50
210;DHT22;90;48.810;9.120;2023-08-20T06:39:45;25.50;82.10
210;DHT22;90;48.810;9.120;2023-08-20T06:47:06;25.60;81.60
210;DHT22;90;48.810;9.120;2023-08-20T06:56:56;25.70;81.50
210;DHT22;90;48.810;9.120;2023-08-20T07:14:07;25.80;81.70
210;DHT22;90;48.810;9.120;2023-08-20T07:16:34;25.80;81.60
210;DHT22;90;48.810;9.120;2023-08-20T07:21:28;25.90;81.50
210;DHT22;90;48.810;9.120;2023-08-20T07:31:24;25.90;81.10
210;DHT22;90;48.810;9.120;2023-08-20T07:33:52;25.80;81.10
210;DHT22;90;48.810;9.120;2023-08-20T07:36:21;25.90;81.20
210;DHT22;90;48.810;9.120;2023-08-20T07:38:48;25.90;81.00
210;DHT22;90;48.810;9.120;2023-08-20T07:41:16;25.90;81.00
210;DHT22;90;48.810;9.120;2023-08-20T07:43:42;25.80;81.10
210;DHT22;90;48.810;9.120;2023-08-20T07:46:09;25.80;81.20
210;DHT22;90;48.810;9.120;2023-08-20T07:48:38;25.80;81.40
210;DHT22;90;48.810;9.120;2023-08-20T07:51:05;25.80;81.10
210;DHT22;90;48.810;9.120;2023-08-20T07:53:33;26.00;80.80
210;DHT22;90;48.810;9.120;2023-08-20T07:56:01;26.00;80.70
210;DHT22;90;48.810;9.120;2023-08-20T07:58:28;26.10;80.70
210;DHT22;90;48.810;9.120;2023-08-20T08:00:55;26.00;80.70
210;DHT22;90;48.810;9.120;2023-08-20T08:03:22;26.00;81.00
210;DHT22;90;48.810;9.120;2023-08-20T08:05:50;26.00;80.80
210;DHT22;90;48.810;9.120;2023-08-20T08:08:18;26.10;80.10
210;DHT22;90;48.810;9.120;2023-08-20T08:10:46;26.40;79.50
210;DHT22;90;48.810;9.120;2023-08-20T08:13:13;26.40;79.50
210;DHT22;90;48.810;9.120;2023-08-20T08:15:40;26.50;78.90
210;DHT22;90;48.810;9.120;2023-08-20T08:18:07;26.40;79.30
210;DHT22;90;48.810;9.120;2023-08-20T08:20:34;26.50;79.10
210;DHT22;90;48.810;9.120;2023-08-20T08:23:03;26.60;78.90
210;DHT22;90;48.810;9.120;2023-08-20T08:25:29;26.70;78.80
210;DHT22;90;48.810;9.120;2023-08-20T08:27:56;26.70;78.80
210;DHT22;90;48.810;9.120;2023-08-20T08:30:23;26.70;78.70
210;DHT22;90;48.810;9.120;2023-08-20T08:35:18;27.00;78.00
210;DHT22;90;48.810;9.120;2023-08-20T08:37:44;27.00;77.90
210;DHT22;90;48.810;9.120;2023-08-20T08:40:15;27.10;77.30
210;DHT22;90;48.810;9.120;2023-08-20T08:45:10;27.20;76.50
210;DHT22;90;48.810;9.120;2023-08-20T08:47:39;27.30;76.50
210;DHT22;90;48.810;9.120;2023-08-20T08:50:07;27.30;76.90
210;DHT22;90;48.810;9.120;2023-08-20T08:52:35;27.30;76.80
210;DHT22;90;48.810;9.120;2023-08-20T08:55:04;27.30;76.60
210;DHT22;90;48.810;9.120;2023-08-20T09:00:02;27.30;76.00
210;DHT22;90;48.810;9.120;2023-08-20T09:09:57;27.40;74.90
210;DHT22;90;48.810;9.120;2023-08-20T09:14:53;27.60;74.40
210;DHT22;90;48.810;9.120;2023-08-20T09:17:25;27.60;73.70
210;DHT22;90;48.810;9.120;2023-08-20T09:19:54;27.70;72.90
210;DHT22;90;48.810;9.120;2023-08-20T09:22:22;27.80;72.40
210;DHT22;90;48.810;9.120;2023-08-20T09:24:52;27.80;72.50
210;DHT22;90;48.810;9.120;2023-08-20T09:27:20;27.80;72.20
210;DHT22;90;48.810;9.120;2023-08-20T09:29:50;27.80;72.00
210;DHT22;90;48.810;9.120;2023-08-20T09:32:20;27.90;71.80
210;DHT22;90;48.810;9.120;2023-08-20T09:34:48;27.90;71.40
210;DHT22;90;48.810;9.120;2023-08-20T09:37:19;28.00;71.60
210;DHT22;90;48.810;9.120;2023-08-20T09:39:46;28.00;72.00
210;DHT22;90;48.810;9.120;2023-08-20T09:42:15;28.10;71.80
210;DHT22;90;48.810;9.120;2023-08-20T09:44:46;28.20;72.60
210;DHT22;90;48.810;9.120;2023-08-20T09:49:45;28.40;71.40
210;DHT22;90;48.810;9.120;2023-08-20T09:52:16;28.40;70.60
210;DHT22;90;48.810;9.120;2023-08-20T09:54:58;28.50;70.70
210;DHT22;90;48.810;9.120;2023-08-20T09:57:33;28.40;70.10
210;DHT22;90;48.810;9.120;2023-08-20T10:00:01;28.40;69.60
210;DHT22;90;48.810;9.120;2023-08-20T10:02:31;28.40;69.20
210;DHT22;90;48.810;9.120;2023-08-20T10:07:29;28.40;69.80
210;DHT22;90;48.810;9.120;2023-08-20T10:10:01;28.50;69.70
210;DHT22;90;48.810;9.120;2023-08-20T10:12:30;28.50;69.50
210;DHT22;90;48.810;9.120;2023-08-20T10:15:00;28.50;67.70
210;DHT22;90;48.810;9.120;2023-08-20T10:17:29;28.60;68.50
210;DHT22;90;48.810;9.120;2023-08-20T10:19:57;28.60;68.20
210;DHT22;90;48.810;9.120;2023-08-20T10:22:35;28.80;69.30
210;DHT22;90;48.810;9.120;2023-08-20T10:25:06;28.80;67.00
210;DHT22;90;48.810;9.120;2023-08-20T10:27:34;28.90;67.00
210;DHT22;90;48.810;9.120;2023-08-20T10:30:01;29.10;66.00
210;DHT22;90;48.810;9.120;2023-08-20T10:32:44;29.20;65.60
210;DHT22;90;48.810;9.120;2023-08-20T10:38:02;29.30;66.40
210;DHT22;90;48.810;9.120;2023-08-20T10:43:27;29.20;66.10
210;DHT22;90;48.810;9.120;2023-08-20T10:48:54;29.20;66.70
210;DHT22;90;48.810;9.120;2023-08-20T10:51:25;29.20;66.80
210;DHT22;90;48.810;9.120;2023-08-20T10:54:05;29.20;66.30
210;DHT22;90;48.810;9.120;2023-08-20T10:56:39;29.30;66.70
210;DHT22;90;48.810;9.120;2023-08-20T10:59:07;29.30;66.50
210;DHT22;90;48.810;9.120;2023-08-20T11:01:38;29.50;66.50
210;DHT22;90;48.810;9.120;2023-08-20T11:04:05;29.50;65.60
210;DHT22;90;48.810;9.120;2023-08-20T11:06:33;29.50;66.30
210;DHT22;90;48.810;9.120;2023-08-20T11:09:02;29.50;65.60
210;DHT22;90;48.810;9.120;2023-08-20T11:11:32;29.50;65.80
210;DHT22;90;48.810;9.120;2023-08-20T11:14:05;29.50;66.50
210;DHT22;90;48.810;9.120;2023-08-20T11:16:35;29.60;66.50
210;DHT22;90;48.810;9.120;2023-08-20T11:21:34;29.70;63.20
210;DHT22;90;48.810;9.120;2023-08-20T11:28:56;29.90;63.30
210;DHT22;90;48.810;9.120;2023-08-20T11:31:23;29.90;63.00
210;DHT22;90;48.810;9.120;2023-08-20T11:36:19;30.10;62.40
210;DHT22;90;48.810;9.120;2023-08-20T11:38:49;30.20;61.70
210;DHT22;90;48.810;9.120;2023-08-20T11:46:15;30.20;60.70
210;DHT22;90;48.810;9.120;2023-08-20T11:49:03;30.30;61.20
210;DHT22;90;48.810;9.120;2023-08-20T11:51:34;30.30;61.50
210;DHT22;90;48.810;9.120;2023-08-20T11:58:59;30.50;60.40
210;DHT22;90;48.810;9.120;2023-08-20T12:01:30;30.60;60.90
210;DHT22;90;48.810;9.120;2023-08-20T12:04:00;30.70;58.60
210;DHT22;90;48.810;9.120;2023-08-20T12:08:56;30.70;58.20
210;DHT22;90;48.810;9.120;2023-08-20T12:16:22;31.00;59.40
210;DHT22;90;48.810;9.120;2023-08-20T12:36:04;31.40;58.30
210;DHT22;90;48.810;9.120;2023-08-20T13:03:06;31.90;56.80
210;DHT22;90;48.810;9.120;2023-08-20T13:05:34;31.90;56.80
210;DHT22;90;48.810;9.120;2023-08-20T13:08:04;31.90;56.10
210;DHT22;90;48.810;9.120;2023-08-20T13:10:33;31.90;55.40
210;DHT22;90;48.810;9.120;2023-08-20T13:13:01;31.80;56.40
210;DHT22;90;48.810;9.120;2023-08-20T13:15:29;31.70;55.90
210;DHT22;90;48.810;9.120;2023-08-20T13:17:56;31.80;56.50
210;DHT22;90;48.810;9.120;2023-08-20T13:22:51;31.70;56.10
210;DHT22;90;48.810;9.120;2023-08-20T13:27:50;31.90;56.00
210;DHT22;90;48.810;9.120;2023-08-20T13:40:08;32.20;55.20
210;DHT22;90;48.810;9.120;2023-08-20T13:42:36;32.30;55.20
210;DHT22;90;48.810;9.120;2023-08-20T13:45:05;32.30;53.80
210;DHT22;90;48.810;9.120;2023-08-20T13:52:31;32.60;53.50
210;DHT22;90;48.810;9.120;2023-08-20T14:31:48;33.80;51.10
210;DHT22;90;48.810;9.120;2023-08-20T15:18:39;32.60;51.90
210;DHT22;90;48.810;9.120;2023-08-20T15:30:57;32.30;53.70
210;DHT22;90;48.810;9.120;2023-08-20T16:02:55;34.70;48.90
210;DHT22;90;48.810;9.120;2023-08-20T16:15:11;34.80;48.30
210;DHT22;90;48.810;9.120;2023-08-20T16:20:08;34.60;48.50
210;DHT22;90;48.810;9.120;2023-08-20T16:22:35;34.60;48.50
210;DHT22;90;48.810;9.120;2023-08-20T16:39:50;34.50;47.70
210;DHT22;90;48.810;9.120;2023-08-20T16:49:40;33.00;51.00
210;DHT22;90;48.810;9.120;2023-08-20T16:52:07;32.70;52.20
210;DHT22;90;48.810;9.120;2023-08-20T16:54:35;32.30;53.00
210;DHT22;90;48.810;9.120;2023-08-20T16:57:02;32.00;54.00
210;DHT22;90;48.810;9.120;2023-08-20T17:04:23;32.40;52.90
210;DHT22;90;48.810;9.120;2023-08-20T17:11:47;32.90;52.10
210;DHT22;90;48.810;9.120;2023-08-20T17:16:41;33.10;52.10
210;DHT22;90;48.810;9.120;2023-08-20T17:19:08;33.20;52.50
210;DHT22;90;48.810;9.120;2023-08-20T17:21:35;33.20;52.50
210;DHT22;90;48.810;9.120;2023-08-20T17:24:02;33.10;53.10
210;DHT22;90;48.810;9.120;2023-08-20T17:26:28;33.00;53.40
210;DHT22;90;48.810;9.120;2023-08-20T17:28:56;33.10;53.40
210;DHT22;90;48.810;9.120;2023-08-20T17:46:09;32.70;54.10
210;DHT22;90;48.810;9.120;2023-08-20T17:48:37;32.60;54.30
210;DHT22;90;48.810;9.120;2023-08-20T17:58:26;32.20;56.00
210;DHT22;90;48.810;9.120;2023-08-20T18:13:12;31.50;57.40
210;DHT22;90;48.810;9.120;2023-08-20T18:15:40;31.30;57.70
210;DHT22;90;48.810;9.120;2023-08-20T18:50:05;30.00;65.20
210;DHT22;90;48.810;9.120;2023-08-20T18:52:32;29.90;65.50
210;DHT22;90;48.810;9.120;2023-08-20T19:46:39;28.60;70.10
210;DHT22;90;48.810;9.120;2023-08-20T19:54:01;28.50;70.10
210;DHT22;90;48.810;9.120;2023-08-20T19:58:55;28.30;72.30
210;DHT22;90;48.810;9.120;2023-08-20T20:01:22;28.20;72.30
210;DHT22;90;48.810;9.120;2023-08-20T20:03:51;28.20;72.30
210;DHT22;90;48.810;9.120;2023-08-20T20:25:56;27.30;73.70
210;DHT22;90;48.810;9.120;2023-08-20T20:30:50;27.30;74.00
210;DHT22;90;48.810;9.120;2023-08-20T20:33:17;27.30;74.30
210;DHT22;90;48.810;9.120;2023-08-20T20:38:12;27.20;74.60
210;DHT22;90;48.810;9.120;2023-08-20T21:02:48;26.90;75.20
210;DHT22;90;48.810;9.120;2023-08-20T21:05:15;26.80;75.60
210;DHT22;90;48.810;9.120;2023-08-20T21:07:41;26.70;75.70
210;DHT22;90;48.810;9.120;2023-08-20T21:10:09;26.70;76.00
210;DHT22;90;48.810;9.120;2023-08-20T21:15:06;26.70;75.90
210;DHT22;90;48.810;9.120;2023-08-20T21:20:01;26.70;76.10
210;DHT22;90;48.810;9.120;2023-08-20T21:22:29;26.60;76.30
210;DHT22;90;48.810;9.120;2023-08-20T21:24:56;26.60;76.70
210;DHT22;90;48.810;9.120;2023-08-20T21:29:51;26.50;76.40
210;DHT22;90;48.810;9.120;2023-08-20T21:44:36;26.30;77.00
210;DHT22;90;48.810;9.120;2023-08-20T21:47:19;26.40;76.30
210;DHT22;90;48.810;9.120;2023-08-20T21:49:47;26.50;76.20
210;DHT22;90;48.810;9.120;2023-08-20T21:57:08;26.50;75.40
210;DHT22;90;48.810;9.120;2023-08-20T21:59:35;26.50;75.40
210;DHT22;90;48.810;9.120;2023-08-20T22:02:04;26.50;75.80
210;DHT22;90;48.810;9.120;2023-08-20T22:04:31;26.40;75.90
210;DHT22;90;48.810;9.120;2023-08-20T22:09:26;26.40;76.10
210;DHT22;90;48.810;9.120;2023-08-20T22:11:54;26.50;75.80
210;DHT22;90;48.810;9.120;2023-08-20T22:14:20;26.40;76.30
210;DHT22;90;48.810;9.120;2023-08-20T22:16:47;26.30;76.00
210;DHT22;90;48.810;9.120;2023-08-20T22:19:15;26.30;76.20
210;DHT22;90;48.810;9.120;2023-08-20T22:21:42;26.30;76.40
210;DHT22;90;48.810;9.120;2023-08-20T22:24:10;26.20;76.60
210;DHT22;90;48.810;9.120;2023-08-20T22:26:39;26.20;76.40
210;DHT22;90;48.810;9.120;2023-08-20T22:29:06;26.20;76.40
210;DHT22;90;48.810;9.120;2023-08-20T22:31:32;26.20;76.20
210;DHT22;90;48.810;9.120;2023-08-20T22:33:59;26.30;76.30
210;DHT22;90;48.810;9.120;2023-08-20T22:36:27;26.20;76.30
210;DHT22;90;48.810;9.120;2023-08-20T22:38:54;26.20;76.30
210;DHT22;90;48.810;9.120;2023-08-20T22:41:20;26.20;76.80
210;DHT22;90;48.810;9.120;2023-08-20T22:43:47;26.30;76.70
210;DHT22;90;48.810;9.120;2023-08-20T22:46:13;26.30;76.50
210;DHT22;90;48.810;9.120;2023-08-20T22:48:40;26.30;76.50
210;DHT22;90;48.810;9.120;2023-08-20T22:51:08;26.20;76.50
210;DHT22;90;48.810;9.120;2023-08-20T22:53:36;26.20;76.40
210;DHT22;90;48.810;9.120;2023-08-20T22:56:03;26.20;76.80
210;DHT22;90;48.810;9.120;2023-08-20T22:58:30;26.10;76.80
210;DHT22;90;48.810;9.120;2023-08-20T23:00:56;26.10;77.20
210;DHT22;90;48.810;9.120;2023-08-20T23:03:23;26.10;77.10
210;DHT22;90;48.810;9.120;2023-08-20T23:05:50;26.10;77.30
210;DHT22;90;48.810;9.120;2023-08-20T23:08:17;26.10;77.60
210;DHT22;90;48.810;9.120;2023-08-20T23:10:44;26.00;77.90
210;DHT22;90;48.810;9.120;2023-08-20T23:13:11;26.00;77.70
210;DHT22;90;48.810;9.120;2023-08-20T23:15:38;26.00;77.30
210;DHT22;90;48.810;9.120;2023-08-20T23:18:05;26.00;77.20
210;DHT22;90;48.810;9.120;2023-08-20T23:20:31;26.00;77.10
210;DHT22;90;48.810;9.120;2023-08-20T23:22:58;26.00;77.10
210;DHT22;90;48.810;9.120;2023-08-20T23:25:25;26.00;77.10
210;DHT22;90;48.810;9.120;2023-08-20T23:27:53;25.90;77.80
210;DHT22;90;48.810;9.120;2023-08-20T23:30:19;25.90;77.80
210;DHT22;90;48.810;9.120;2023-08-20T23:32:48;25.90;77.80
210;DHT22;90;48.810;9.120;2023-08-20T23:35:16;25.90;77.40
210;DHT22;90;48.810;9.120;2023-08-20T23:37:42;26.00;77.10
210;DHT22;90;48.810;9.120;2023-08-20T23:40:10;26.00;76.90
210;DHT22;90;48.810;9.120;2023-08-20T23:42:36;26.00;77.10
210;DHT22;90;48.810;9.120;2023-08-20T23:45:06;25.90;77.60
210;DHT22;90;48.810;9.120;2023-08-20T23:47:33;25.90;77.30
210;DHT22;90;48.810;9.120;2023-08-20T23:49:59;25.90;77.40
210;DHT22;90;48.810;9.120;2023-08-20T23:52:26;26.00;77.40
210;DHT22;90;48.810;9.120;2023-08-20T23:54:53;26.00;76.90
210;DHT22;90;48.810;9.120;2023-08-20T23:57:19;26.00;77.40
210;DHT22;90;48.810;9.120;2023-08-20T23:59:46;26.00;77.40
